createdAt,value
2022-11-13T00:00:01.075Z,44.40
2022-11-13T00:05:02.970Z,44.24
2022-11-13T00:10:05.377Z,44.44
2022-11-13T00:15:07.601Z,44.47
2022-11-13T00:20:09.752Z,44.51
2022-11-13T00:25:12.089Z,44.63
2022-11-13T00:30:19.093Z,44.46
2022-11-13T00:35:21.404Z,44.47
2022-11-13T00:40:23.278Z,44.63
2022-11-13T00:45:25.200Z,44.42
2022-11-13T00:50:28.083Z,44.56
2022-11-13T00:55:29.832Z,44.33
2022-11-13T01:00:32.789Z,46.37
2022-11-13T01:05:39.214Z,45.43
2022-11-13T01:10:53.202Z,45.18
2022-11-13T01:15:55.626Z,44.96
2022-11-13T01:21:09.151Z,45.19
2022-11-13T01:26:12.503Z,45.27
2022-11-13T01:31:21.337Z,45.10
2022-11-13T01:36:26.478Z,45.32
2022-11-13T01:41:34.057Z,44.88
2022-11-13T01:46:42.714Z,45.10
2022-11-13T01:51:50.735Z,45.23
2022-11-13T01:56:53.815Z,45.11
2022-11-13T02:01:56.515Z,45.10
2022-11-13T02:07:02.892Z,45.10
2022-11-13T02:12:07.397Z,45.07
2022-11-13T02:17:11.715Z,45.13
2022-11-13T02:22:27.587Z,45.32
2022-11-13T02:27:48.370Z,45.16
2022-11-13T02:32:53.253Z,45.03
2022-11-13T02:37:56.527Z,45.08
2022-11-13T02:42:58.356Z,45.05
2022-11-13T02:48:01.094Z,45.06
2022-11-13T02:53:03.257Z,44.92
2022-11-13T02:58:05.643Z,45.07
2022-11-13T03:03:07.487Z,45.01
2022-11-13T03:08:09.292Z,45.12
2022-11-13T03:13:11.113Z,45.12
2022-11-13T03:18:13.013Z,45.05
2022-11-13T03:23:14.847Z,45.01
2022-11-13T03:28:16.863Z,45.19
2022-11-13T03:33:18.627Z,44.89
2022-11-13T03:38:20.763Z,45.08
2022-11-13T03:43:23.483Z,44.84
2022-11-13T03:48:25.575Z,45.17
2022-11-13T03:53:27.856Z,44.98
2022-11-13T03:58:29.994Z,44.74
2022-11-13T04:03:31.843Z,44.83
2022-11-13T04:08:33.575Z,44.82
2022-11-13T04:13:35.327Z,44.80
2022-11-13T04:18:37.031Z,44.93
2022-11-13T04:23:38.992Z,44.93
2022-11-13T04:28:40.772Z,44.81
2022-11-13T04:33:42.638Z,44.89
2022-11-13T04:38:44.531Z,44.72
2022-11-13T04:43:46.582Z,45.20
2022-11-13T04:48:48.472Z,44.81
2022-11-13T04:53:50.534Z,44.85
2022-11-13T04:58:52.720Z,45.02
2022-11-13T05:03:54.456Z,45.04
2022-11-13T05:08:56.323Z,44.75
2022-11-13T05:14:03.240Z,44.81
2022-11-13T05:19:09.212Z,44.79
2022-11-13T05:24:12.161Z,44.85
2022-11-13T05:29:14.107Z,44.71
2022-11-13T05:34:15.854Z,44.86
2022-11-13T05:39:17.744Z,44.81
2022-11-13T05:44:19.784Z,44.71
2022-11-13T05:49:21.541Z,44.90
2022-11-13T05:54:23.992Z,44.82
2022-11-13T05:59:25.901Z,44.74
2022-11-13T06:04:27.809Z,44.97
2022-11-13T06:09:29.686Z,45.02
2022-11-13T06:14:31.523Z,44.84
2022-11-13T06:19:33.268Z,44.87
2022-11-13T06:24:34.888Z,44.71
2022-11-13T06:29:36.737Z,44.81
2022-11-13T06:34:38.605Z,44.90
2022-11-13T06:39:40.539Z,44.66
2022-11-13T06:44:42.925Z,44.62
2022-11-13T06:49:44.974Z,44.95
2022-11-13T06:54:46.897Z,44.59
2022-11-13T06:59:48.734Z,44.72
2022-11-13T07:04:50.591Z,44.58
2022-11-13T07:09:52.335Z,44.80
2022-11-13T07:14:54.234Z,44.60
2022-11-13T07:19:56.266Z,44.88
2022-11-13T07:24:58.631Z,44.72
2022-11-13T07:30:03.619Z,44.81
2022-11-13T07:35:06.468Z,44.77
2022-11-13T07:40:08.902Z,44.54
2022-11-13T07:45:11.004Z,44.81
2022-11-13T07:50:13.153Z,44.50
2022-11-13T07:55:15.191Z,44.35
2022-11-13T08:00:17.620Z,44.54
2022-11-13T08:05:19.551Z,44.78
2022-11-13T08:10:21.848Z,44.46
2022-11-13T08:15:23.752Z,44.74
2022-11-13T08:20:27.343Z,44.11
2022-11-13T08:25:30.804Z,45.95
2022-11-13T08:30:32.818Z,47.01
2022-11-13T08:35:34.499Z,47.41
2022-11-13T08:40:36.447Z,47.04
2022-11-13T08:45:38.440Z,46.86
2022-11-13T08:50:41.014Z,46.99
2022-11-13T08:55:42.620Z,46.89
2022-11-13T09:00:44.618Z,46.35
2022-11-13T09:05:46.331Z,46.08
2022-11-13T09:10:48.210Z,46.51
2022-11-13T09:15:49.851Z,46.21
2022-11-13T09:20:51.676Z,45.84
2022-11-13T09:25:53.745Z,45.79
2022-11-13T09:30:55.978Z,45.77
2022-11-13T09:35:58.183Z,45.72
2022-11-13T09:41:10.589Z,45.20
2022-11-13T09:46:44.443Z,45.31
2022-11-13T09:51:55.759Z,45.37
2022-11-13T09:57:06.351Z,45.20
2022-11-13T10:02:08.135Z,45.34
2022-11-13T10:07:23.052Z,45.14
2022-11-13T10:12:28.155Z,45.34
2022-11-13T10:17:39.459Z,45.18
2022-11-13T10:22:49.298Z,45.19
2022-11-13T10:27:56.749Z,44.86
2022-11-13T10:33:06.138Z,44.77
2022-11-13T10:38:21.469Z,44.77
2022-11-13T10:43:26.228Z,44.81
2022-11-13T10:48:29.960Z,45.06
2022-11-13T10:53:41.294Z,44.93
2022-11-13T10:58:42.954Z,44.83
2022-11-13T11:03:51.243Z,44.70
2022-11-13T11:08:53.020Z,44.90
2022-11-13T11:14:20.593Z,45.02
2022-11-13T11:19:28.893Z,44.83
2022-11-13T11:24:36.297Z,45.09
2022-11-13T11:29:44.054Z,45.61
2022-11-13T11:35:08.353Z,45.65
2022-11-13T11:40:17.693Z,45.49
2022-11-13T11:45:41.039Z,45.24
2022-11-13T11:50:55.540Z,45.83
2022-11-13T11:55:57.177Z,45.58
2022-11-13T12:01:07.003Z,45.57
2022-11-13T12:06:17.903Z,46.40
2022-11-13T12:11:30.093Z,48.48
2022-11-13T12:16:50.446Z,49.46
2022-11-13T12:22:13.122Z,49.04
2022-11-13T12:27:41.098Z,48.29
2022-11-13T12:33:04.268Z,49.15
2022-11-13T12:38:21.709Z,47.48
2022-11-13T12:43:41.892Z,47.78
2022-11-13T12:48:48.300Z,47.29
2022-11-13T12:53:53.117Z,47.05
2022-11-13T12:59:28.538Z,47.10
2022-11-13T13:04:43.504Z,46.24
2022-11-13T13:10:00.120Z,45.89
2022-11-13T13:15:32.444Z,45.76
2022-11-13T13:20:38.465Z,45.43
2022-11-13T13:25:41.442Z,45.13
2022-11-13T13:30:57.155Z,45.49
2022-11-13T13:36:15.747Z,45.36
2022-11-13T13:41:41.649Z,45.32
2022-11-13T13:46:43.779Z,45.40
2022-11-13T13:51:49.006Z,45.57
2022-11-13T13:56:51.393Z,45.28
2022-11-13T14:02:04.506Z,45.62
2022-11-13T14:07:18.471Z,45.45
2022-11-13T14:12:23.513Z,45.24
2022-11-13T14:17:25.852Z,45.37
2022-11-13T14:22:28.557Z,45.14
2022-11-13T14:27:31.293Z,45.12
2022-11-13T14:32:42.970Z,45.16
2022-11-13T14:37:48.759Z,45.41
2022-11-13T14:43:02.760Z,45.41
2022-11-13T14:48:19.073Z,45.10
2022-11-13T14:53:32.888Z,45.27
2022-11-13T14:58:47.532Z,45.34
2022-11-13T15:03:51.122Z,45.02
2022-11-13T15:08:58.365Z,45.13
2022-11-13T15:14:04.303Z,45.64
2022-11-13T15:19:35.460Z,45.21
2022-11-13T15:24:37.312Z,45.17
2022-11-13T15:29:39.067Z,45.39
2022-11-13T15:34:40.944Z,45.45
2022-11-13T15:39:44.009Z,45.21
2022-11-13T15:44:46.246Z,45.13
2022-11-13T15:50:09.864Z,44.70
2022-11-13T15:55:36.215Z,44.76
2022-11-13T16:00:42.756Z,44.77
2022-11-13T16:05:44.755Z,44.74
2022-11-13T16:10:46.758Z,44.81
2022-11-13T16:15:49.771Z,44.49
2022-11-13T16:20:51.400Z,44.48
2022-11-13T16:25:54.576Z,44.87
2022-11-13T16:30:58.060Z,44.48
2022-11-13T16:35:59.682Z,45.16
2022-11-13T16:41:02.563Z,44.73
2022-11-13T16:46:14.594Z,45.22
2022-11-13T16:51:17.034Z,44.62
2022-11-13T16:56:31.570Z,44.84
2022-11-13T17:01:33.783Z,45.27
2022-11-13T17:06:37.021Z,47.49
2022-11-13T17:11:40.300Z,47.31
2022-11-13T17:16:42.159Z,46.66
2022-11-13T17:21:44.742Z,46.55
2022-11-13T17:26:46.737Z,46.38
2022-11-13T17:31:49.093Z,49.80
2022-11-13T17:36:52.421Z,49.18
2022-11-13T17:41:54.718Z,48.82
2022-11-13T17:46:56.868Z,46.20
2022-11-13T17:51:58.666Z,49.57
2022-11-13T17:57:02.569Z,47.71
2022-11-13T18:02:04.609Z,46.58
2022-11-13T18:07:06.958Z,46.71
2022-11-13T18:12:08.796Z,46.73
2022-11-13T18:17:10.440Z,46.62
2022-11-13T18:22:12.836Z,46.80
2022-11-13T18:27:15.339Z,46.50
2022-11-13T18:32:18.309Z,46.61
2022-11-13T18:37:20.409Z,46.84
2022-11-13T18:42:22.589Z,46.87
2022-11-13T18:47:24.620Z,46.75
2022-11-13T18:52:26.415Z,46.50
2022-11-13T18:57:28.307Z,46.50
2022-11-13T19:02:30.350Z,46.45
2022-11-13T19:07:32.295Z,46.44
2022-11-13T19:12:34.515Z,46.34
2022-11-13T19:17:36.524Z,46.37
2022-11-13T19:22:38.507Z,45.84
2022-11-13T19:27:40.279Z,45.62
2022-11-13T19:32:41.975Z,45.97
2022-11-13T19:37:43.935Z,45.73
2022-11-13T19:42:45.814Z,45.69
2022-11-13T19:47:47.688Z,45.41
2022-11-13T19:52:49.463Z,45.63
2022-11-13T19:57:51.292Z,45.69
2022-11-13T20:02:56.042Z,45.69
2022-11-13T20:07:58.563Z,45.38
2022-11-13T20:13:00.618Z,45.22
2022-11-13T20:18:02.514Z,45.18
2022-11-13T20:23:04.184Z,45.09
2022-11-13T20:28:06.084Z,45.27
2022-11-13T20:33:07.901Z,45.04
2022-11-13T20:38:10.799Z,45.15
2022-11-13T20:43:12.919Z,45.08
2022-11-13T20:48:14.932Z,44.95
2022-11-13T20:53:16.936Z,45.10
2022-11-13T20:58:19.864Z,44.84
2022-11-13T21:03:22.411Z,44.82
2022-11-13T21:08:24.845Z,44.93
2022-11-13T21:13:27.329Z,44.84
2022-11-13T21:18:30.756Z,45.14
2022-11-13T21:23:33.345Z,44.80
2022-11-13T21:28:35.893Z,44.78
2022-11-13T21:33:39.212Z,45.00
2022-11-13T21:38:42.756Z,45.14
2022-11-13T21:43:44.995Z,45.28
2022-11-13T21:48:48.092Z,44.89
2022-11-13T21:53:50.406Z,45.21
2022-11-13T21:58:53.111Z,44.66
2022-11-13T22:03:55.152Z,44.91
2022-11-13T22:08:59.139Z,45.44
2022-11-13T22:14:01.758Z,44.92
2022-11-13T22:19:06.095Z,45.04
2022-11-13T22:24:09.119Z,44.83
2022-11-13T22:29:11.419Z,44.90
2022-11-13T22:34:13.119Z,45.07
2022-11-13T22:39:14.762Z,45.01
2022-11-13T22:44:16.438Z,44.79
2022-11-13T22:49:19.256Z,44.70
2022-11-13T22:54:21.091Z,44.89
2022-11-13T22:59:22.888Z,44.80
2022-11-13T23:04:24.638Z,44.96
2022-11-13T23:09:28.859Z,44.82
2022-11-13T23:14:30.633Z,45.02
2022-11-13T23:19:32.577Z,44.69
2022-11-13T23:24:34.381Z,44.86
2022-11-13T23:29:36.243Z,44.75
2022-11-13T23:34:58.642Z,44.73
2022-11-13T23:39:59.768Z,44.63
2022-11-13T23:45:01.741Z,45.03
2022-11-13T23:50:03.821Z,44.54
2022-11-13T23:55:05.970Z,44.94
